Time;durP1;ratioP1;P1;durP2;ratioP2;P2;SDS_P1;SDS_P2;PMS_P1;PMS_P2;Temp;Humidity;BMP_temperature;BMP_pressure;BME280_temperature;BME280_humidity;BME280_pressure;Samples;Min_cycle;Max_cycle;Signal;HPM_P1;HPM_P2
2024/02/03 00:02:07;;;;;;;11.32;4.43;;;11.40;89.70;;;;;;5030268;28;20400;-64
2024/02/03 00:04:36;;;;;;;8.32;3.45;;;11.40;89.70;;;;;;5028973;28;20041;-65
2024/02/03 00:07:02;;;;;;;7.45;3.40;;;11.50;89.60;;;;;;5031973;28;20057;-64
2024/02/03 00:09:28;;;;;;;5.95;3.47;;;11.50;89.50;;;;;;5029586;28;20492;-64
2024/02/03 00:11:54;;;;;;;8.55;3.90;;;11.50;89.40;;;;;;5027021;28;20567;-64
2024/02/03 00:14:20;;;;;;;6.15;3.53;;;11.50;89.30;;;;;;5030776;28;20037;-64
2024/02/03 00:16:46;;;;;;;7.75;4.15;;;11.50;89.30;;;;;;5028312;28;20032;-64
2024/02/03 00:19:12;;;;;;;7.07;4.00;;;11.50;89.30;;;;;;5028332;28;20439;-64
2024/02/03 00:21:38;;;;;;;4.65;2.90;;;11.50;89.30;;;;;;5029950;28;20056;-65
2024/02/03 00:24:04;;;;;;;6.55;3.95;;;11.50;89.40;;;;;;5040164;28;20537;-65
2024/02/03 00:26:30;;;;;;;3.40;2.83;;;11.50;89.30;;;;;;5031021;28;20116;-65
2024/02/03 00:28:56;;;;;;;4.72;3.10;;;11.50;89.10;;;;;;5029570;28;20120;-65
2024/02/03 00:31:22;;;;;;;5.55;3.35;;;11.60;89.20;;;;;;5031668;28;20075;-65
2024/02/03 00:33:48;;;;;;;7.18;4.90;;;11.60;89.00;;;;;;5030651;28;20025;-65
2024/02/03 00:36:25;;;;;;;7.30;3.80;;;11.60;88.90;;;;;;5031639;28;20053;-65
2024/02/03 00:38:51;;;;;;;9.77;4.50;;;11.60;88.90;;;;;;5029436;28;20025;-64
2024/02/03 00:41:18;;;;;;;7.65;3.88;;;11.60;89.00;;;;;;5033113;28;20022;-65
2024/02/03 00:43:43;;;;;;;7.35;4.03;;;11.60;89.10;;;;;;5039395;28;20039;-65
2024/02/03 00:46:12;;;;;;;9.82;3.78;;;11.50;89.00;;;;;;5030877;28;20484;-65
2024/02/03 00:48:39;;;;;;;7.10;3.58;;;11.60;89.10;;;;;;5028472;28;20465;-65
2024/02/03 00:51:11;;;;;;;5.78;3.78;;;11.60;89.00;;;;;;5036083;28;20030;-65
2024/02/03 00:53:38;;;;;;;7.07;3.83;;;11.60;89.00;;;;;;5033602;28;20492;-65
2024/02/03 00:56:05;;;;;;;7.22;4.05;;;11.60;89.00;;;;;;5029501;28;20116;-65
2024/02/03 00:58:31;;;;;;;6.30;3.95;;;11.60;89.00;;;;;;5032102;28;20503;-65
2024/02/03 01:00:57;;;;;;;9.10;4.50;;;11.50;89.10;;;;;;5036228;28;20063;-65
2024/02/03 01:03:27;;;;;;;10.15;4.80;;;11.50;89.10;;;;;;5027320;28;20432;-63
2024/02/03 01:05:53;;;;;;;8.02;5.07;;;11.60;89.10;;;;;;5033713;28;20022;-63
2024/02/03 01:08:20;;;;;;;6.25;3.85;;;11.50;89.00;;;;;;5036868;28;20468;-63
2024/02/03 01:10:46;;;;;;;7.30;3.85;;;11.60;89.10;;;;;;5032594;28;20473;-63
2024/02/03 01:13:12;;;;;;;6.45;3.38;;;11.60;89.00;;;;;;5034553;28;20438;-63
2024/02/03 01:15:38;;;;;;;7.55;3.78;;;11.60;89.00;;;;;;5026085;28;20022;-64
2024/02/03 01:18:04;;;;;;;7.45;3.88;;;11.60;89.00;;;;;;5031599;28;20384;-62
2024/02/03 01:20:32;;;;;;;8.85;4.80;;;11.50;89.00;;;;;;5028547;28;20025;-63
2024/02/03 01:22:58;;;;;;;8.20;3.50;;;11.50;89.00;;;;;;5031127;28;20029;-63
2024/02/03 01:25:24;;;;;;;8.52;4.65;;;11.50;89.10;;;;;;5030475;28;20388;-64
2024/02/03 01:27:50;;;;;;;7.65;4.00;;;11.50;89.10;;;;;;5034080;28;20029;-63
2024/02/03 01:30:16;;;;;;;8.35;4.05;;;11.60;89.10;;;;;;5026760;28;20025;-63
2024/02/03 01:32:42;;;;;;;8.70;3.67;;;11.60;89.20;;;;;;5028432;28;20469;-64
2024/02/03 01:35:09;;;;;;;5.95;4.03;;;11.50;89.20;;;;;;5032727;28;20488;-63
2024/02/03 01:37:36;;;;;;;9.82;3.38;;;11.50;89.20;;;;;;5027361;28;20052;-64
2024/02/03 01:40:04;;;;;;;6.43;4.13;;;11.50;89.30;;;;;;5039091;28;20377;-63
2024/02/03 01:42:30;;;;;;;8.23;4.93;;;11.50;89.30;;;;;;5036002;28;20506;-64
2024/02/03 01:44:56;;;;;;;9.05;3.58;;;11.50;89.30;;;;;;5039390;28;20026;-64
2024/02/03 01:47:22;;;;;;;6.03;3.88;;;11.50;89.20;;;;;;5032576;28;20492;-64
2024/02/03 01:49:51;;;;;;;5.15;3.17;;;11.50;89.20;;;;;;5029863;28;20129;-64
2024/02/03 01:52:18;;;;;;;5.22;2.83;;;11.50;89.10;;;;;;5028702;28;20128;-64
2024/02/03 01:54:45;;;;;;;4.88;3.25;;;11.60;89.10;;;;;;5028337;28;20485;-64
2024/02/03 01:57:12;;;;;;;7.57;3.28;;;11.60;89.00;;;;;;5033088;28;20124;-64
2024/02/03 01:59:39;;;;;;;8.00;4.28;;;11.60;88.90;;;;;;5033404;28;20103;-64
2024/02/03 02:02:05;;;;;;;6.40;2.67;;;11.60;88.80;;;;;;5028639;28;20112;-64
2024/02/03 02:04:31;;;;;;;5.28;3.45;;;11.60;88.80;;;;;;5028911;28;20029;-64
2024/02/03 02:06:58;;;;;;;6.13;2.95;;;11.60;88.80;;;;;;5029726;28;20030;-64
2024/02/03 02:09:26;;;;;;;5.85;2.33;;;11.60;88.80;;;;;;5025975;28;20451;-64
2024/02/03 02:11:54;;;;;;;6.18;3.42;;;11.60;88.90;;;;;;5029351;28;20133;-64
2024/02/03 02:14:24;;;;;;;6.43;3.20;;;11.60;88.90;;;;;;5027275;28;20368;-64
2024/02/03 02:16:50;;;;;;;4.10;2.22;;;11.60;88.90;;;;;;5030422;28;20129;-64
2024/02/03 02:19:17;;;;;;;9.25;3.00;;;11.60;88.80;;;;;;5029374;28;20021;-64
2024/02/03 02:21:43;;;;;;;4.32;2.22;;;11.70;88.80;;;;;;5030231;28;20044;-64
2024/02/03 02:24:10;;;;;;;5.97;3.33;;;11.70;88.70;;;;;;5030158;28;20113;-64
2024/02/03 02:26:36;;;;;;;6.25;3.17;;;11.70;88.80;;;;;;5036771;28;20037;-64
2024/02/03 02:29:02;;;;;;;5.57;2.42;;;11.70;88.80;;;;;;5035789;28;20032;-64
2024/02/03 02:31:28;;;;;;;3.70;2.03;;;11.70;88.80;;;;;;5037883;28;20074;-64
2024/02/03 02:33:54;;;;;;;4.68;3.22;;;11.70;88.80;;;;;;5034803;28;20034;-64
2024/02/03 02:36:20;;;;;;;3.13;2.42;;;11.70;88.70;;;;;;5038404;28;20035;-63
2024/02/03 02:38:46;;;;;;;5.78;2.38;;;11.70;88.80;;;;;;5029818;28;20134;-64
2024/02/03 02:41:12;;;;;;;2.95;2.42;;;11.70;88.90;;;;;;5038498;28;20369;-63
2024/02/03 02:43:38;;;;;;;6.45;3.45;;;11.70;88.90;;;;;;5036583;28;20050;-63
2024/02/03 02:46:05;;;;;;;4.80;2.25;;;11.70;88.90;;;;;;5041195;28;20037;-63
2024/02/03 02:48:31;;;;;;;6.25;3.22;;;11.70;89.10;;;;;;5036409;28;20116;-63
2024/02/03 02:50:57;;;;;;;4.43;2.70;;;11.70;89.20;;;;;;5037836;28;20064;-63
2024/02/03 02:53:25;;;;;;;6.50;2.33;;;11.70;89.20;;;;;;5044349;28;20025;-63
2024/02/03 02:55:51;;;;;;;5.72;1.98;;;11.70;89.80;;;;;;5031278;28;20033;-63
2024/02/03 02:58:17;;;;;;;6.55;2.67;;;11.70;89.30;;;;;;5030776;28;20545;-63
2024/02/03 03:00:43;;;;;;;2.90;2.00;;;11.70;89.20;;;;;;5033239;28;20029;-63
2024/02/03 03:03:09;;;;;;;4.63;1.98;;;11.70;89.20;;;;;;5034324;28;20025;-64
2024/02/03 03:05:35;;;;;;;4.15;1.92;;;11.70;89.20;;;;;;5035890;28;20029;-63
2024/02/03 03:08:02;;;;;;;8.55;2.38;;;11.70;89.20;;;;;;5041113;28;20032;-63
2024/02/03 03:10:28;;;;;;;5.72;2.53;;;11.70;89.30;;;;;;5039128;28;20475;-63
2024/02/03 03:12:54;;;;;;;4.40;2.97;;;11.70;89.60;;;;;;5028728;28;20544;-63
2024/02/03 03:15:20;;;;;;;3.13;2.35;;;11.60;89.80;;;;;;5046249;28;20025;-63
2024/02/03 03:17:46;;;;;;;5.85;2.15;;;11.60;89.90;;;;;;5039507;28;20044;-63
2024/02/03 03:20:12;;;;;;;5.93;2.20;;;11.60;90.00;;;;;;5061980;28;20070;-63
2024/02/03 03:22:38;;;;;;;7.03;2.10;;;11.50;90.00;;;;;;5035172;28;20032;-63
2024/02/03 03:25:04;;;;;;;3.92;2.33;;;11.50;90.10;;;;;;5038894;28;20037;-64
2024/02/03 03:27:30;;;;;;;3.58;2.00;;;11.50;90.30;;;;;;5040776;28;20040;-63
2024/02/03 03:29:56;;;;;;;3.65;2.20;;;11.50;90.30;;;;;;5034161;28;20504;-63
2024/02/03 03:32:22;;;;;;;7.25;2.67;;;11.50;90.30;;;;;;5044030;28;20029;-63
2024/02/03 03:34:48;;;;;;;7.50;2.67;;;11.50;90.30;;;;;;5042491;28;20029;-63
2024/02/03 03:37:15;;;;;;;7.20;2.38;;;11.50;90.30;;;;;;5031758;28;20512;-64
2024/02/03 03:39:41;;;;;;;3.88;1.88;;;11.50;90.40;;;;;;5034366;28;20604;-64
2024/02/03 03:42:06;;;;;;;4.97;2.13;;;11.50;90.40;;;;;;5044942;28;20037;-64
2024/02/03 03:44:32;;;;;;;8.10;2.90;;;11.50;90.40;;;;;;5045024;28;20373;-64
2024/02/03 03:47:01;;;;;;;4.28;2.17;;;11.50;90.40;;;;;;5029967;28;20037;-64
2024/02/03 03:49:32;;;;;;;2.92;1.90;;;11.60;90.40;;;;;;5036240;28;20107;-64
2024/02/03 03:51:59;;;;;;;3.28;2.30;;;11.60;90.40;;;;;;5028003;28;20529;-64
2024/02/03 03:54:25;;;;;;;3.05;2.08;;;11.60;90.40;;;;;;5035219;28;20025;-62
2024/02/03 03:56:51;;;;;;;4.50;2.03;;;11.60;90.30;;;;;;5037536;28;20036;-63
2024/02/03 03:59:17;;;;;;;6.35;2.78;;;11.60;90.40;;;;;;5033946;28;20025;-63
2024/02/03 04:01:50;;;;;;;4.38;2.03;;;11.60;90.40;;;;;;5030996;28;20112;-63
2024/02/03 04:04:20;;;;;;;4.07;2.30;;;11.60;90.40;;;;;;5030174;28;20070;-63
2024/02/03 04:06:46;;;;;;;5.32;2.65;;;11.60;90.40;;;;;;5028386;28;20025;-63
2024/02/03 04:09:13;;;;;;;6.78;2.65;;;11.60;90.40;;;;;;5030055;28;20029;-63
2024/02/03 04:11:39;;;;;;;10.70;3.70;;;11.60;90.40;;;;;;5037356;28;20029;-63
2024/02/03 04:14:07;;;;;;;4.47;2.45;;;11.60;90.50;;;;;;5038177;28;20026;-62
2024/02/03 04:16:33;;;;;;;4.13;2.03;;;11.60;90.50;;;;;;5030530;28;20143;-62
2024/02/03 04:19:00;;;;;;;3.08;2.25;;;11.60;90.50;;;;;;5033412;28;20024;-64
2024/02/03 04:21:29;;;;;;;4.18;2.90;;;11.60;90.40;;;;;;5038161;28;20519;-64
2024/02/03 04:23:55;;;;;;;7.55;3.15;;;11.60;90.40;;;;;;5037835;28;20403;-64
2024/02/03 04:26:22;;;;;;;5.60;3.03;;;11.60;90.50;;;;;;5030994;28;20025;-64
2024/02/03 04:28:47;;;;;;;9.48;2.80;;;11.60;90.50;;;;;;5034241;28;20029;-65
2024/02/03 04:31:13;;;;;;;6.60;2.55;;;11.60;90.50;;;;;;5042105;28;20037;-64
2024/02/03 04:33:39;;;;;;;4.95;2.58;;;11.60;90.50;;;;;;5032304;28;20112;-63
2024/02/03 04:36:06;;;;;;;6.15;2.40;;;11.60;90.50;;;;;;5033036;28;20022;-63
2024/02/03 04:38:32;;;;;;;3.13;2.03;;;11.60;90.40;;;;;;5034087;28;20069;-63
2024/02/03 04:40:58;;;;;;;6.07;1.92;;;11.60;90.40;;;;;;5035966;28;20480;-63
2024/02/03 04:43:24;;;;;;;6.05;3.15;;;11.60;90.60;;;;;;5037788;28;20044;-63
2024/02/03 04:45:50;;;;;;;4.07;2.05;;;11.60;90.40;;;;;;5032251;28;20034;-62
2024/02/03 04:48:16;;;;;;;4.05;2.38;;;11.60;90.40;;;;;;5031629;28;20068;-64
2024/02/03 04:50:42;;;;;;;4.60;2.05;;;11.60;90.50;;;;;;5035840;28;20444;-63
2024/02/03 04:53:08;;;;;;;4.30;2.22;;;11.60;90.40;;;;;;5031769;28;20108;-63
2024/02/03 04:55:35;;;;;;;4.90;2.65;;;11.70;90.30;;;;;;5032019;28;20037;-63
2024/02/03 04:58:01;;;;;;;6.85;2.72;;;11.70;90.30;;;;;;5030527;28;20436;-63
2024/02/03 05:00:27;;;;;;;5.30;2.60;;;11.70;90.30;;;;;;5029501;28;20411;-63
2024/02/03 05:02:53;;;;;;;3.53;2.25;;;11.70;90.30;;;;;;5027810;28;20026;-64
2024/02/03 05:05:19;;;;;;;3.17;1.58;;;11.70;90.20;;;;;;5040655;28;20032;-65
2024/02/03 05:07:48;;;;;;;2.90;1.67;;;11.70;90.20;;;;;;5037506;28;20080;-65
2024/02/03 05:10:15;;;;;;;6.05;2.55;;;11.70;90.10;;;;;;5034894;28;20087;-65
2024/02/03 05:12:41;;;;;;;6.80;1.95;;;11.70;90.20;;;;;;5037073;28;20029;-65
2024/02/03 05:15:07;;;;;;;3.85;2.63;;;11.70;90.20;;;;;;5043743;28;20431;-65
2024/02/03 05:17:33;;;;;;;2.38;1.30;;;11.70;90.20;;;;;;5029990;28;20132;-65
2024/02/03 05:19:59;;;;;;;4.88;1.45;;;11.80;90.10;;;;;;5028525;28;20029;-65
2024/02/03 05:22:25;;;;;;;2.67;1.77;;;11.80;90.10;;;;;;5028537;28;20038;-65
2024/02/03 05:24:51;;;;;;;7.00;1.77;;;11.80;90.00;;;;;;5036006;28;20071;-65
2024/02/03 05:27:17;;;;;;;2.90;1.98;;;11.80;90.00;;;;;;5038142;28;20042;-65
2024/02/03 05:29:43;;;;;;;4.50;1.40;;;11.80;90.00;;;;;;5027043;28;20044;-65
2024/02/03 05:32:09;;;;;;;2.88;1.42;;;11.80;90.00;;;;;;5037968;28;20128;-65
2024/02/03 05:34:35;;;;;;;3.53;1.48;;;11.80;90.00;;;;;;5030129;28;20087;-65
2024/02/03 05:37:01;;;;;;;13.77;1.60;;;11.80;89.90;;;;;;5031145;28;20025;-65
2024/02/03 05:39:27;;;;;;;7.25;2.38;;;11.80;90.00;;;;;;5026887;28;20404;-65
2024/02/03 05:41:53;;;;;;;3.35;1.58;;;11.80;89.90;;;;;;5019648;28;20533;-65
2024/02/03 05:44:19;;;;;;;4.20;1.58;;;11.80;90.00;;;;;;5032356;28;20113;-65
2024/02/03 05:46:45;;;;;;;5.05;1.98;;;11.80;90.00;;;;;;5036927;28;20040;-65
2024/02/03 05:49:11;;;;;;;3.35;2.08;;;11.80;89.80;;;;;;5043573;28;20061;-65
2024/02/03 05:51:37;;;;;;;6.07;1.48;;;11.70;89.80;;;;;;5029327;28;20080;-64
2024/02/03 05:54:03;;;;;;;4.10;1.63;;;11.70;89.80;;;;;;5035852;28;20094;-64
2024/02/03 05:56:29;;;;;;;3.42;1.80;;;11.70;89.80;;;;;;5030249;28;20493;-64
2024/02/03 05:58:55;;;;;;;3.50;2.00;;;11.80;89.90;;;;;;5030203;28;20030;-64
2024/02/03 06:01:21;;;;;;;3.72;1.58;;;11.80;89.70;;;;;;5032793;28;20103;-64
2024/02/03 06:03:47;;;;;;;3.20;1.58;;;11.80;89.80;;;;;;5035076;28;20021;-63
2024/02/03 06:06:13;;;;;;;1.95;1.60;;;11.80;89.70;;;;;;5042816;28;20484;-64
2024/02/03 06:08:40;;;;;;;2.78;2.08;;;11.90;89.60;;;;;;5038701;28;20037;-64
2024/02/03 06:11:06;;;;;;;2.75;1.45;;;11.80;89.60;;;;;;5037544;28;20033;-64
2024/02/03 06:13:31;;;;;;;2.35;1.73;;;11.80;89.60;;;;;;5033489;28;20036;-64
2024/02/03 06:15:57;;;;;;;4.22;1.60;;;11.80;89.50;;;;;;5036217;28;20104;-64
2024/02/03 06:18:23;;;;;;;7.78;1.42;;;11.80;89.50;;;;;;5038599;28;20053;-65
2024/02/03 06:20:48;;;;;;;5.07;1.60;;;11.80;89.40;;;;;;5033239;28;20108;-65
2024/02/03 06:23:14;;;;;;;1.67;1.40;;;11.80;89.40;;;;;;5033443;28;20061;-65
2024/02/03 06:25:40;;;;;;;4.53;1.73;;;11.80;89.40;;;;;;5031907;28;20040;-65
2024/02/03 06:28:07;;;;;;;2.88;1.60;;;11.80;89.40;;;;;;5032910;28;20131;-65
2024/02/03 06:30:33;;;;;;;3.53;1.63;;;11.70;89.40;;;;;;5028592;28;20037;-65
2024/02/03 06:32:59;;;;;;;4.43;1.70;;;11.80;89.50;;;;;;5034109;28;20396;-65
2024/02/03 06:35:25;;;;;;;2.00;1.65;;;11.80;89.40;;;;;;5030264;28;20033;-65
2024/02/03 06:37:50;;;;;;;3.42;1.65;;;11.90;89.40;;;;;;5033510;28;20064;-65
2024/02/03 06:40:16;;;;;;;3.42;0.98;;;11.80;89.20;;;;;;5033730;28;20372;-65
2024/02/03 06:42:41;;;;;;;6.80;1.67;;;11.90;89.20;;;;;;5034060;28;20480;-65
2024/02/03 06:45:08;;;;;;;6.10;1.63;;;11.90;89.10;;;;;;5031290;28;20034;-65
2024/02/03 06:47:33;;;;;;;1.60;1.50;;;11.90;89.10;;;;;;5032975;28;20037;-64
2024/02/03 06:49:59;;;;;;;3.83;1.77;;;11.90;89.00;;;;;;5033533;28;20026;-64
2024/02/03 06:52:25;;;;;;;3.33;1.85;;;11.90;89.00;;;;;;5039638;28;20095;-65
2024/02/03 06:54:50;;;;;;;5.20;1.88;;;11.80;89.00;;;;;;5034846;28;20021;-65
2024/02/03 06:57:16;;;;;;;4.75;2.20;;;11.90;89.10;;;;;;5040496;28;20506;-64
2024/02/03 06:59:42;;;;;;;5.90;2.22;;;11.80;89.10;;;;;;5030630;28;20473;-64
2024/02/03 07:02:07;;;;;;;2.05;1.85;;;11.80;89.00;;;;;;5029061;28;20072;-64
2024/02/03 07:04:34;;;;;;;1.88;1.52;;;11.80;89.00;;;;;;5031517;28;20044;-65
2024/02/03 07:07:02;;;;;;;5.63;1.42;;;11.80;89.00;;;;;;5035678;28;20065;-64
2024/02/03 07:09:28;;;;;;;3.08;2.15;;;11.90;89.00;;;;;;5034166;28;20030;-64
2024/02/03 07:11:53;;;;;;;5.13;2.00;;;11.90;89.00;;;;;;5030332;28;20473;-64
2024/02/03 07:14:19;;;;;;;4.68;1.83;;;11.90;88.90;;;;;;5031830;28;20461;-64
2024/02/03 07:16:45;;;;;;;4.53;2.35;;;11.90;88.80;;;;;;5039000;28;20028;-64
2024/02/03 07:19:10;;;;;;;3.50;2.30;;;11.90;88.80;;;;;;5035762;28;20059;-64
2024/02/03 07:21:36;;;;;;;5.80;2.08;;;11.90;88.80;;;;;;5037237;28;20034;-64
2024/02/03 07:24:02;;;;;;;3.22;2.33;;;11.90;88.80;;;;;;5035672;28;20021;-64
2024/02/03 07:26:28;;;;;;;5.40;2.42;;;11.90;88.80;;;;;;5035021;28;20065;-64
2024/02/03 07:28:54;;;;;;;5.13;2.03;;;11.90;88.70;;;;;;5037269;28;20502;-64
2024/02/03 07:31:29;;;;;;;2.20;1.77;;;11.90;88.70;;;;;;5032071;28;20040;-64
2024/02/03 07:33:56;;;;;;;7.15;2.75;;;11.90;88.80;;;;;;5029796;28;20409;-65
2024/02/03 07:36:23;;;;;;;7.13;2.55;;;11.90;88.70;;;;;;5038256;28;20021;-65
2024/02/03 07:38:49;;;;;;;3.28;1.77;;;11.90;88.70;;;;;;5036321;28;20071;-65
2024/02/03 07:41:15;;;;;;;5.78;2.25;;;11.90;88.80;;;;;;5038554;28;20037;-65
2024/02/03 07:43:41;;;;;;;5.22;2.15;;;11.90;88.90;;;;;;5041282;28;20029;-65
2024/02/03 07:46:07;;;;;;;5.45;2.38;;;11.90;89.00;;;;;;5031339;28;20032;-66
2024/02/03 07:48:33;;;;;;;7.43;3.05;;;11.90;89.20;;;;;;5039928;28;20034;-65
2024/02/03 07:50:58;;;;;;;12.50;2.55;;;11.90;89.40;;;;;;5036768;28;20080;-65
2024/02/03 07:53:24;;;;;;;4.95;2.05;;;11.90;89.50;;;;;;5035390;28;20369;-66
2024/02/03 07:55:50;;;;;;;5.47;2.92;;;11.90;89.60;;;;;;5034811;28;20029;-65
2024/02/03 07:58:16;;;;;;;3.03;2.10;;;11.90;89.70;;;;;;5030198;28;20112;-65
2024/02/03 08:00:42;;;;;;;4.35;2.67;;;11.90;89.70;;;;;;5034166;28;20026;-64
2024/02/03 08:03:08;;;;;;;11.05;3.03;;;11.90;89.70;;;;;;5047195;28;20037;-65
2024/02/03 08:05:33;;;;;;;4.57;2.60;;;11.80;89.80;;;;;;5038626;28;20072;-65
2024/02/03 08:07:59;;;;;;;14.90;3.65;;;11.80;89.90;;;;;;5039087;28;20454;-66
2024/02/03 08:10:25;;;;;;;11.68;3.22;;;11.80;90.00;;;;;;5037369;28;20041;-65
2024/02/03 08:12:50;;;;;;;5.78;2.88;;;11.80;90.00;;;;;;5029867;28;20055;-65
2024/02/03 08:15:18;;;;;;;14.73;3.30;;;11.80;90.00;;;;;;5031961;28;20045;-64
2024/02/03 08:17:43;;;;;;;7.10;3.72;;;11.90;90.00;;;;;;5023779;28;20022;-63
2024/02/03 08:20:10;;;;;;;10.52;3.25;;;11.90;90.00;;;;;;5033146;28;20461;-66
2024/02/03 08:22:35;;;;;;;4.90;2.70;;;11.90;90.00;;;;;;5032519;28;20032;-64
2024/02/03 08:25:01;;;;;;;4.10;2.50;;;11.80;90.00;;;;;;5033315;28;20033;-64
2024/02/03 08:27:26;;;;;;;8.13;2.78;;;11.80;90.00;;;;;;5039528;28;20035;-65
2024/02/03 08:29:52;;;;;;;5.53;3.33;;;11.90;90.00;;;;;;5038914;28;20393;-67
2024/02/03 08:32:18;;;;;;;5.88;3.45;;;11.90;89.80;;;;;;5030922;28;20069;-66
2024/02/03 08:34:44;;;;;;;4.93;3.20;;;11.90;89.80;;;;;;5030128;28;20056;-65
2024/02/03 08:37:09;;;;;;;4.45;2.85;;;11.90;89.70;;;;;;5031908;28;20029;-65
2024/02/03 08:39:35;;;;;;;3.40;2.28;;;11.90;89.60;;;;;;5029657;28;20492;-65
2024/02/03 08:42:01;;;;;;;6.93;2.50;;;12.00;90.10;;;;;;5031865;28;20060;-65
2024/02/03 08:44:26;;;;;;;4.30;2.63;;;12.00;89.50;;;;;;5033311;28;20043;-65
2024/02/03 08:46:52;;;;;;;7.30;3.00;;;12.00;89.40;;;;;;5029247;28;20040;-66
2024/02/03 08:49:17;;;;;;;6.25;3.13;;;12.00;89.40;;;;;;5032397;28;20021;-65
2024/02/03 08:51:43;;;;;;;6.50;2.75;;;12.00;89.30;;;;;;5032658;28;20501;-63
2024/02/03 08:54:09;;;;;;;6.15;3.38;;;12.00;89.20;;;;;;5037181;28;20021;-66
2024/02/03 08:56:34;;;;;;;11.90;3.13;;;12.00;89.20;;;;;;5029597;28;20436;-66
2024/02/03 08:59:00;;;;;;;6.65;2.85;;;12.00;89.10;;;;;;5032661;28;20079;-65
2024/02/03 09:01:26;;;;;;;5.05;3.38;;;12.10;89.00;;;;;;5028680;28;20026;-62
2024/02/03 09:03:51;;;;;;;4.97;3.50;;;12.10;89.00;;;;;;5035006;28;20148;-64
2024/02/03 09:06:17;;;;;;;8.52;3.58;;;12.10;88.90;;;;;;5033538;28;20033;-65
2024/02/03 09:08:42;;;;;;;9.75;3.08;;;12.10;88.90;;;;;;5027006;28;20457;-62
2024/02/03 09:11:08;;;;;;;3.67;2.15;;;12.10;88.80;;;;;;5026856;28;20388;-66
2024/02/03 09:13:34;;;;;;;4.90;2.40;;;12.10;88.70;;;;;;5036839;28;20025;-67
2024/02/03 09:15:59;;;;;;;8.02;3.53;;;12.20;88.50;;;;;;5026987;28;20029;-67
2024/02/03 09:18:25;;;;;;;9.90;2.70;;;12.20;88.50;;;;;;5024073;28;20032;-64
2024/02/03 09:20:51;;;;;;;5.68;1.85;;;12.20;88.50;;;;;;5035338;28;20043;-62
2024/02/03 09:23:16;;;;;;;2.90;1.83;;;12.20;88.40;;;;;;5035088;28;20016;-62
2024/02/03 09:25:42;;;;;;;6.13;2.35;;;12.30;88.40;;;;;;5037166;28;20112;-62
2024/02/03 09:28:08;;;;;;;3.58;2.17;;;12.30;88.20;;;;;;5036702;28;20021;-62
2024/02/03 09:30:33;;;;;;;3.97;2.33;;;12.40;88.20;;;;;;5020203;28;20034;-62
2024/02/03 09:33:01;;;;;;;4.97;2.63;;;12.40;88.10;;;;;;5030891;28;20057;-61
2024/02/03 09:35:27;;;;;;;11.32;3.28;;;12.40;88.00;;;;;;5015452;28;20034;-62
2024/02/03 09:37:52;;;;;;;4.65;2.35;;;12.40;88.00;;;;;;5015013;28;20455;-64
2024/02/03 09:40:23;;;;;;;5.32;1.65;;;12.40;88.00;;;;;;5027521;28;20033;-61
2024/02/03 09:42:49;;;;;;;15.95;2.63;;;12.40;88.00;;;;;;5019421;28;20474;-61
2024/02/03 09:45:15;;;;;;;4.00;2.47;;;12.40;87.80;;;;;;5025229;28;20021;-61
2024/02/03 09:47:46;;;;;;;5.88;2.55;;;12.40;87.80;;;;;;5024720;28;20183;-61
2024/02/03 09:50:12;;;;;;;5.00;2.28;;;12.40;87.90;;;;;;5024268;28;20026;-62
2024/02/03 09:52:38;;;;;;;2.03;1.48;;;12.40;87.80;;;;;;5030040;28;20492;-61
2024/02/03 09:55:05;;;;;;;2.70;2.15;;;12.40;87.80;;;;;;5033928;28;20074;-62
2024/02/03 09:57:32;;;;;;;4.97;2.15;;;12.40;87.80;;;;;;5023428;28;20383;-61
2024/02/03 09:59:58;;;;;;;8.25;2.17;;;12.40;87.80;;;;;;5018357;28;20030;-61
2024/02/03 10:02:23;;;;;;;6.93;2.40;;;12.40;87.80;;;;;;5015803;28;20207;-62
2024/02/03 10:04:49;;;;;;;4.15;2.42;;;12.40;87.90;;;;;;5017379;28;20025;-62
2024/02/03 10:07:19;;;;;;;5.57;3.58;;;12.30;87.90;;;;;;5024129;28;20113;-62
2024/02/03 10:09:45;;;;;;;4.40;2.90;;;12.30;88.00;;;;;;5018159;28;20449;-61
2024/02/03 10:12:24;;;;;;;4.40;2.40;;;12.30;88.00;;;;;;5016219;28;20606;-62
2024/02/03 10:15:07;;;;;;;6.47;3.00;;;12.40;88.00;;;;;;5024437;28;20484;-62
2024/02/03 10:17:33;;;;;;;5.40;3.35;;;12.40;88.00;;;;;;5020909;28;20033;-62
2024/02/03 10:19:58;;;;;;;4.00;2.90;;;12.40;88.00;;;;;;5025628;28;20026;-63
2024/02/03 10:22:26;;;;;;;9.30;4.10;;;12.40;88.00;;;;;;5018557;28;20037;-62
2024/02/03 10:24:52;;;;;;;20.95;3.58;;;12.50;87.90;;;;;;5016800;28;20536;-62
2024/02/03 10:27:23;;;;;;;9.68;3.72;;;12.50;87.80;;;;;;5018610;28;20070;-62
2024/02/03 10:29:53;;;;;;;7.35;2.40;;;12.50;87.80;;;;;;5023038;28;20397;-62
2024/02/03 10:32:19;;;;;;;6.45;2.35;;;12.50;87.80;;;;;;5042166;28;20035;-63
2024/02/03 10:34:46;;;;;;;4.15;2.67;;;12.50;87.50;;;;;;5017076;28;20484;-62
2024/02/03 10:37:11;;;;;;;3.67;2.20;;;12.50;87.60;;;;;;5016660;28;20018;-64
2024/02/03 10:39:41;;;;;;;8.50;2.85;;;12.60;87.70;;;;;;5012611;28;20044;-62
2024/02/03 10:42:14;;;;;;;3.38;1.80;;;12.60;87.60;;;;;;5019186;28;20045;-64
2024/02/03 10:44:39;;;;;;;;;;;12.60;87.60;;;;;;5020526;28;20030;-64
2024/02/03 10:47:06;;;;;;;3.55;2.33;;;12.60;87.60;;;;;;5023475;28;20349;-64
2024/02/03 10:49:33;;;;;;;5.85;2.40;;;12.60;87.60;;;;;;5018491;28;20028;-65
2024/02/03 10:52:02;;;;;;;3.65;2.33;;;12.70;87.50;;;;;;5018130;28;20045;-64
2024/02/03 10:54:29;;;;;;;5.60;2.42;;;12.70;87.30;;;;;;5023502;28;20060;-65
2024/02/03 10:56:56;;;;;;;2.40;1.45;;;12.70;87.30;;;;;;5036258;28;20096;-64
2024/02/03 10:59:22;;;;;;;7.35;2.65;;;12.70;87.40;;;;;;5017682;28;20512;-63
2024/02/03 11:01:48;;;;;;;6.60;2.72;;;12.70;87.20;;;;;;5030426;28;20029;-65
2024/02/03 11:04:14;;;;;;;4.20;2.08;;;12.70;86.90;;;;;;5024976;28;20120;-66
2024/02/03 11:06:41;;;;;;;5.25;2.42;;;12.70;87.10;;;;;;5024520;28;20044;-66
2024/02/03 11:09:18;;;;;;;5.80;2.88;;;12.70;87.10;;;;;;5018857;28;20033;-66
2024/02/03 11:11:52;;;;;;;5.43;2.10;;;12.70;87.30;;;;;;5024519;28;20115;-65
2024/02/03 11:14:21;;;;;;;3.65;2.03;;;12.60;87.40;;;;;;5022623;28;20500;-64
2024/02/03 11:16:53;;;;;;;6.85;2.75;;;12.70;87.50;;;;;;5017058;28;20064;-65
2024/02/03 11:19:27;;;;;;;2.75;1.98;;;12.60;87.50;;;;;;5028724;28;20095;-66
2024/02/03 11:21:57;;;;;;;3.70;2.00;;;12.60;87.70;;;;;;5035924;28;20029;-63
2024/02/03 11:24:24;;;;;;;6.10;2.20;;;12.60;87.90;;;;;;5036571;28;21053;-64
2024/02/03 11:26:59;;;;;;;6.35;2.63;;;12.50;88.20;;;;;;5035086;28;20029;-64
2024/02/03 11:29:25;;;;;;;1.52;1.40;;;12.50;88.40;;;;;;5038984;28;20041;-64
2024/02/03 11:32:03;;;;;;;5.30;2.53;;;12.50;88.60;;;;;;5034481;28;20033;-64
2024/02/03 11:34:32;;;;;;;5.70;2.50;;;12.50;88.80;;;;;;5037764;28;20480;-64
2024/02/03 11:36:59;;;;;;;3.15;1.90;;;12.50;88.90;;;;;;5036850;28;20036;-64
2024/02/03 11:39:27;;;;;;;3.55;1.80;;;12.40;88.90;;;;;;5032826;28;20544;-63
2024/02/03 11:41:54;;;;;;;1.98;1.50;;;12.40;89.60;;;;;;5019474;28;20033;-63
2024/02/03 11:44:20;;;;;;;3.95;1.75;;;12.40;89.20;;;;;;5026825;28;20042;-63
2024/02/03 11:46:46;;;;;;;7.18;2.03;;;12.40;89.40;;;;;;5025221;28;20067;-62
2024/02/03 11:49:13;;;;;;;6.32;1.60;;;12.40;89.40;;;;;;5028021;28;20026;-63
2024/02/03 11:51:40;;;;;;;2.38;1.40;;;12.30;89.40;;;;;;5023014;28;20373;-63
2024/02/03 11:54:06;;;;;;;5.18;1.85;;;12.40;89.50;;;;;;5011083;28;20038;-63
2024/02/03 11:56:32;;;;;;;2.00;1.40;;;12.30;89.50;;;;;;5025696;28;20029;-64
2024/02/03 11:58:58;;;;;;;2.13;1.48;;;12.40;89.70;;;;;;5057182;28;20108;-63
2024/02/03 12:01:25;;;;;;;2.00;1.50;;;12.40;89.60;;;;;;5018791;28;21186;-63
2024/02/03 12:03:52;;;;;;;1.88;1.52;;;12.40;89.60;;;;;;5020991;28;20037;-63
2024/02/03 12:06:18;;;;;;;4.68;2.00;;;12.40;89.60;;;;;;5019896;28;20068;-63
2024/02/03 12:08:44;;;;;;;3.05;1.58;;;12.40;89.90;;;;;;5022398;28;20025;-64
2024/02/03 12:11:09;;;;;;;5.35;1.38;;;12.30;90.00;;;;;;5019373;28;20036;-63
2024/02/03 12:13:36;;;;;;;3.13;1.70;;;12.20;90.00;;;;;;5021422;28;20132;-62
2024/02/03 12:16:03;;;;;;;6.10;2.47;;;12.20;90.20;;;;;;5017526;28;20035;-63
2024/02/03 12:18:29;;;;;;;4.47;2.13;;;12.20;90.30;;;;;;5027839;28;20480;-62
2024/02/03 12:20:55;;;;;;;7.65;1.67;;;12.20;90.30;;;;;;5033400;28;20037;-64
2024/02/03 12:23:21;;;;;;;2.92;1.95;;;12.20;90.40;;;;;;5026933;28;20030;-64
2024/02/03 12:25:50;;;;;;;2.55;1.48;;;12.20;90.40;;;;;;5036911;28;20431;-64
2024/02/03 12:28:17;;;;;;;3.00;1.38;;;12.20;90.50;;;;;;5029412;28;20037;-64
2024/02/03 12:30:43;;;;;;;4.03;1.80;;;12.20;90.50;;;;;;5048377;28;20037;-64
2024/02/03 12:33:09;;;;;;;3.35;1.50;;;12.20;90.50;;;;;;5032340;28;20044;-64
2024/02/03 12:35:35;;;;;;;3.75;1.95;;;12.20;90.50;;;;;;5059774;28;20116;-64
2024/02/03 12:38:02;;;;;;;1.90;1.38;;;12.30;90.50;;;;;;5032563;28;20068;-64
2024/02/03 12:40:27;;;;;;;4.68;2.40;;;12.30;90.50;;;;;;5033783;28;20021;-64
2024/02/03 12:42:53;;;;;;;1.80;1.48;;;12.30;90.40;;;;;;5035896;28;20064;-64